UPSVAC Airport Information Service

Albany International Airport

ICAO: KALB Country: United States
Latitude: 42.7491 Longitude: -73.8019
Latest Arrival : AMF2013 (KEWR-KALB) Latest Departure : AMF2014 (KALB-KRUT)


WX CaptureLIVE
Data provided by noaa.gov | Fetched at 13:59:13

METAR : KALB 141251Z 00000KT 10SM FEW095 FEW250 12/06 A3005 RMK AO2 SLP177 T01220056 $

TAF : KALB 141120Z 1412/1512 VRB03KT P6SM SCT080 SCT250 FM141900 18006KT P6SM SCT050 BKN100 FM150300 15006KT P6SM VCSH SCT025 OVC050 FM150600 13006KT P6SM VCSH BKN025 OVC050 FM150900 13006KT 4SM -RA BR BKN015 OVC025


Runway Data for KALB
Data provided by openaviationdata.com

Runway ID Mag Var Hdg Length Elevation Surface ILS Freq ILS Id ILS Slope
1 -14 12° 7202 ft 285 ft Asphalt 109.5 IDEJ 3
10 -14 102° 7188 ft 285 ft Asphalt -- -- --
19 -14 192° 7202 ft 285 ft Asphalt 109.5 IALB 3
28 -14 282° 7188 ft 285 ft Asphalt -- -- --

Albany International Airport, United States
Use only for reference purposes



Not for navigational purposes.